Startpagina
METAR-TAF:

METAR-TAF

Vliegvelden :

Woensdrecht, Nederland

Vliegbasis Woensdrecht

breedte: 51-27N, lengte: 004-20E, hoogte: 20 m

Actueel weer

Dit bericht is 24 minuten geleden gemaakt, om 18:25 UTC
Wind 7 kt uit het westen, variërend tussen het westzuidwesten en het noordwesten
Temperatuur 19°C
Vochtigheid 68%
Druk 1007 hPa
Zicht 10 km of meer
Gebroken wolken op 6200 ft
Gebroken wolken op 6900 ft
Gebroken wolken op 11000 ft

METAR: EHWO 271825Z AUTO 28007KT 240V320 9999 BKN062 BKN069 BKN110 19/13 Q1007 BLU

Tijdstip: 20:49 (18:49 UTC)

Verwachting

Dit bericht is 10 uur en het 40 minuten geleden gemaakt, om 08:09 UTC
Verwachting geldig van 27 om 09 UTC tot 27 om 21 UTC
Wind 10 kt uit het westzuidwesten
Zicht 10 km of meer
Verspreide wolken op 2000 ft
Gebroken wolken op 18000 ft
Kans 40% :
Tijdelijke
van 27 om 09 UTC tot 27 om 19 UTC
Wind 12 kt uit het westzuidwesten met uitschieters tot 22 kt

TAF: EHWO 270809Z 2709/2721 24010KT 9999 SCT020 BKN180 PROB40 TEMPO 2709/2719 25012G22KT

Waarnemingen en weersverwachtingen van meer dan 4000 vliegvelden (METAR en TAF).

De beschikbare stations zijn de gele en rode punten op de kaart.

Ga met uw muis naar het station om de naam te zien.

Klik dan om waarnemingen en weersverwachtingen te zien.

kaart wijzigen: klik op de groene knoppen met een zwart kruis om in te zoomen, op de groene knop met een streepje om uit te zoomen of op de groene pijlen voor aangrenzende kaarten.


METAR-TAF: